Hacienda Margarita, Puerto Rico
Current Conditions -  °F | °C
As of 3:53 PM on Saturday 20 Dec 2014 (Local Time) from TJNR Reporting Station
Light Rain Light Rain  
Wind Chill: 77°   Ceiling: 5500
Heat Index: 78°   Visibility: 5mi
Dew Point: 72°   Wind: 3mph
Humidity: 84%   Direction: 70°ENE
Pressure: 30.01"   Gusts: NA
Location:  18.3744°N, 65.7168°W
Report Text: TJNR 201953Z AUTO 07003KT 5SM -RA SCT044 OVC055 25/22 A3001 RMK AO2 RAB29 SLP163 P0001 T02500222 $
Loading
Personal Weather Stations






























Interactive Weather Map New forecast layout! Learn more

10-Day Weather Forecast

Advertisements
Track Severe Weather on mobile